createdAt,value
2019-02-06T00:00:26.256Z,1020.18
2019-02-06T00:01:14.965Z,1020.19
2019-02-06T00:02:14.963Z,1020.17
2019-02-06T00:03:14.969Z,1020.16
2019-02-06T00:04:15.622Z,1020.13
2019-02-06T00:05:15.524Z,1020.16
2019-02-06T00:06:14.969Z,1020.12
2019-02-06T00:07:14.975Z,1020.12
2019-02-06T00:08:15.036Z,1020.08
2019-02-06T00:09:14.992Z,1020.09
2019-02-06T00:10:15.037Z,1020.09
2019-02-06T00:11:14.981Z,1020.01
2019-02-06T00:12:14.982Z,1020.03
2019-02-06T00:13:14.989Z,1020.01
2019-02-06T00:14:15.001Z,1020.04
2019-02-06T00:15:14.988Z,1020.08
2019-02-06T00:16:15.017Z,1020.07
2019-02-06T00:17:15.028Z,1020.07
2019-02-06T00:18:14.996Z,1020.10
2019-02-06T00:19:15.026Z,1020.11
2019-02-06T00:20:15.028Z,1020.11
2019-02-06T00:21:14.999Z,1020.10
2019-02-06T00:22:15.009Z,1020.10
2019-02-06T00:23:14.999Z,1020.13
2019-02-06T00:24:15.009Z,1020.14
2019-02-06T00:25:15.006Z,1020.13
2019-02-06T00:26:15.012Z,1020.11
2019-02-06T00:27:15.007Z,1020.09
2019-02-06T00:28:15.001Z,1020.04
2019-02-06T00:29:15.018Z,1019.98
2019-02-06T00:30:15.012Z,1020.00
2019-02-06T00:31:15.042Z,1020.00
2019-02-06T00:32:15.015Z,1019.90
2019-02-06T00:33:15.020Z,1019.93
2019-02-06T00:34:15.016Z,1019.90
2019-02-06T00:35:25.473Z,1019.89
2019-02-06T00:36:15.020Z,1019.92
2019-02-06T00:37:15.023Z,1019.85
2019-02-06T00:38:15.022Z,1019.93
2019-02-06T00:39:15.030Z,1019.94
2019-02-06T00:40:15.032Z,1019.93
2019-02-06T00:41:15.042Z,1019.92
2019-02-06T00:42:15.033Z,1019.91
2019-02-06T00:43:15.034Z,1019.87
2019-02-06T00:44:15.033Z,1019.87
2019-02-06T00:45:15.035Z,1019.90
2019-02-06T00:46:15.047Z,1019.92
2019-02-06T00:47:15.046Z,1019.95
2019-02-06T00:48:15.044Z,1019.94
2019-02-06T00:49:15.060Z,1019.93
2019-02-06T00:50:15.043Z,1019.93
2019-02-06T00:51:15.047Z,1019.89
2019-02-06T00:52:15.058Z,1019.86
2019-02-06T00:53:15.058Z,1019.84
2019-02-06T00:54:15.060Z,1019.85
2019-02-06T00:55:15.060Z,1019.86
2019-02-06T00:56:15.059Z,1019.88
2019-02-06T00:57:15.062Z,1019.87
2019-02-06T00:58:15.058Z,1019.87
2019-02-06T00:59:15.064Z,1019.84
2019-02-06T01:00:15.720Z,1019.85
2019-02-06T01:01:15.060Z,1019.86
2019-02-06T01:02:15.071Z,1019.88
2019-02-06T01:03:15.159Z,1019.85
2019-02-06T01:04:15.068Z,1019.84
2019-02-06T01:05:15.072Z,1019.78
2019-02-06T01:06:15.079Z,1019.80
2019-02-06T01:07:15.070Z,1019.84
2019-02-06T01:08:15.077Z,1019.77
2019-02-06T01:09:15.092Z,1019.79
2019-02-06T01:10:15.071Z,1019.76
2019-02-06T01:11:15.081Z,1019.69
2019-02-06T01:12:15.077Z,1019.70
2019-02-06T01:13:15.088Z,1019.72
2019-02-06T01:14:15.086Z,1019.71
2019-02-06T01:15:15.086Z,1019.71
2019-02-06T01:16:15.083Z,1019.71
2019-02-06T01:17:15.089Z,1019.64
2019-02-06T01:18:15.084Z,1019.65
2019-02-06T01:19:15.087Z,1019.59
2019-02-06T01:20:15.116Z,1019.62
2019-02-06T01:21:15.084Z,1019.64
2019-02-06T01:22:15.094Z,1019.60
2019-02-06T01:23:16.376Z,1019.58
2019-02-06T01:24:15.107Z,1019.54
2019-02-06T01:25:15.094Z,1019.55
2019-02-06T01:26:15.094Z,1019.56
2019-02-06T01:27:15.098Z,1019.56
2019-02-06T01:28:15.100Z,1019.62
2019-02-06T01:29:15.103Z,1019.62
2019-02-06T01:30:15.101Z,1019.65
2019-02-06T01:31:15.103Z,1019.59
2019-02-06T01:32:15.121Z,1019.62
2019-02-06T01:33:15.110Z,1019.59
2019-02-06T01:34:15.106Z,1019.55
2019-02-06T01:35:15.113Z,1019.54
2019-02-06T01:36:15.113Z,1019.58
2019-02-06T01:37:15.119Z,1019.56
2019-02-06T01:38:15.118Z,1019.54
2019-02-06T01:39:15.119Z,1019.54
2019-02-06T01:40:15.118Z,1019.52
2019-02-06T01:41:15.119Z,1019.45
2019-02-06T01:42:15.123Z,1019.50
2019-02-06T02:58:18.743Z,1018.57
2019-02-06T02:59:18.718Z,1018.60
2019-02-06T03:01:11.819Z,1018.66
2019-02-06T03:02:11.799Z,1018.64
2019-02-06T03:04:05.414Z,1018.65
2019-02-06T03:05:05.394Z,1018.64
2019-02-06T03:06:05.410Z,1018.61
2019-02-06T03:07:05.395Z,1018.61
2019-02-06T03:08:05.396Z,1018.60
2019-02-06T03:09:05.401Z,1018.59
2019-02-06T03:10:05.406Z,1018.58
2019-02-06T03:11:05.404Z,1018.52
2019-02-06T03:12:05.405Z,1018.51
2019-02-06T03:13:05.408Z,1018.50
2019-02-06T03:14:05.409Z,1018.48
2019-02-06T03:15:05.407Z,1018.46
2019-02-06T03:16:05.415Z,1018.42
2019-02-06T03:17:05.411Z,1018.46
2019-02-06T03:18:05.524Z,1018.43
2019-02-06T03:19:05.416Z,1018.45
2019-02-06T03:20:05.415Z,1018.39
2019-02-06T03:21:05.417Z,1018.42
2019-02-06T03:22:05.420Z,1018.36
2019-02-06T03:23:05.419Z,1018.31
2019-02-06T03:24:05.526Z,1018.32
2019-02-06T03:25:05.419Z,1018.32
2019-02-06T03:26:05.433Z,1018.31
2019-02-06T03:27:05.431Z,1018.28
2019-02-06T03:28:05.432Z,1018.27
2019-02-06T03:29:05.430Z,1018.21
2019-02-06T03:30:05.477Z,1018.17
2019-02-06T03:31:05.444Z,1018.14
2019-02-06T03:32:05.442Z,1018.06
2019-02-06T03:33:05.437Z,1018.04
2019-02-06T03:34:05.439Z,1017.99
2019-02-06T03:35:05.448Z,1017.96
2019-02-06T03:36:05.441Z,1017.95
2019-02-06T03:37:05.440Z,1017.93
2019-02-06T03:38:05.441Z,1017.97
2019-02-06T03:39:05.449Z,1017.93
2019-02-06T03:40:05.451Z,1017.93
2019-02-06T03:41:05.449Z,1017.90
2019-02-06T03:42:05.449Z,1017.90
2019-02-06T03:43:05.451Z,1017.87
2019-02-06T03:44:05.498Z,1017.85
2019-02-06T03:45:05.448Z,1017.84
2019-02-06T03:46:05.463Z,1017.81
2019-02-06T03:47:05.460Z,1017.74
2019-02-06T03:48:05.558Z,1017.76
2019-02-06T03:49:05.461Z,1017.75
2019-02-06T03:50:05.463Z,1017.77
2019-02-06T03:51:05.466Z,1017.79
2019-02-06T03:52:05.465Z,1017.77
2019-02-06T03:53:05.467Z,1017.71
2019-02-06T03:54:05.459Z,1017.64
2019-02-06T03:55:05.464Z,1017.62
2019-02-06T03:56:05.468Z,1017.62
2019-02-06T03:57:05.471Z,1017.59
2019-02-06T03:58:05.470Z,1017.61
2019-02-06T03:59:05.477Z,1017.64
2019-02-06T04:00:05.475Z,1017.63
2019-02-06T04:01:05.473Z,1017.57
2019-02-06T04:02:05.478Z,1017.57
2019-02-06T04:03:05.480Z,1017.62
2019-02-06T04:04:05.479Z,1017.65
2019-02-06T04:05:05.478Z,1017.62
2019-02-06T04:06:05.491Z,1017.65
2019-02-06T04:07:05.503Z,1017.64
2019-02-06T04:08:05.489Z,1017.63
2019-02-06T04:09:05.515Z,1017.59
2019-02-06T04:10:05.489Z,1017.60
2019-02-06T04:11:05.493Z,1017.57
2019-02-06T04:12:05.495Z,1017.56
2019-02-06T04:13:05.495Z,1017.55
2019-02-06T04:14:05.494Z,1017.56
2019-02-06T04:15:05.499Z,1017.57
2019-02-06T04:16:05.497Z,1017.60
2019-02-06T04:17:05.501Z,1017.57
2019-02-06T04:18:05.499Z,1017.54
2019-02-06T04:19:05.643Z,1017.52
2019-02-06T04:20:05.519Z,1017.52
2019-02-06T04:21:05.593Z,1017.46
2019-02-06T04:22:05.511Z,1017.49
2019-02-06T04:23:05.509Z,1017.47
2019-02-06T04:24:05.516Z,1017.49
2019-02-06T04:25:05.512Z,1017.48
2019-02-06T04:26:05.519Z,1017.49
2019-02-06T04:27:05.520Z,1017.49
2019-02-06T04:28:05.516Z,1017.48
2019-02-06T04:29:05.514Z,1017.51
2019-02-06T04:30:05.518Z,1017.52
2019-02-06T04:31:05.522Z,1017.52
2019-02-06T04:32:05.525Z,1017.53
2019-02-06T04:33:05.696Z,1017.51
2019-02-06T04:34:05.526Z,1017.55
2019-02-06T04:35:05.527Z,1017.50
2019-02-06T04:36:05.533Z,1017.47
2019-02-06T04:37:06.892Z,1017.42
2019-02-06T04:38:05.532Z,1017.40
2019-02-06T04:39:05.533Z,1017.34
2019-02-06T04:40:05.540Z,1017.37
2019-02-06T04:41:05.539Z,1017.39
2019-02-06T04:42:05.540Z,1017.40
2019-02-06T04:43:05.540Z,1017.40
2019-02-06T04:44:05.537Z,1017.38
2019-02-06T04:45:05.546Z,1017.38
2019-02-06T04:46:05.540Z,1017.36
2019-02-06T04:47:05.546Z,1017.31
2019-02-06T04:48:05.545Z,1017.36
2019-02-06T04:49:05.569Z,1017.35
2019-02-06T04:50:05.550Z,1017.36
2019-02-06T04:51:05.551Z,1017.33
2019-02-06T04:52:05.550Z,1017.33
2019-02-06T04:53:05.550Z,1017.31
2019-02-06T04:54:05.555Z,1017.33
2019-02-06T04:55:05.564Z,1017.33
2019-02-06T04:56:06.182Z,1017.34
2019-02-06T04:57:05.557Z,1017.33
2019-02-06T04:58:05.557Z,1017.31
2019-02-06T04:59:05.576Z,1017.30
2019-02-06T05:00:05.561Z,1017.26
2019-02-06T05:01:05.584Z,1017.23
2019-02-06T05:02:05.565Z,1017.26
2019-02-06T05:03:05.564Z,1017.23
2019-02-06T05:04:05.635Z,1017.22
2019-02-06T05:05:05.622Z,1017.23
2019-02-06T05:06:05.781Z,1017.23
2019-02-06T05:07:05.573Z,1017.19
2019-02-06T05:08:05.751Z,1017.19
2019-02-06T05:09:05.711Z,1017.18
2019-02-06T05:10:05.729Z,1017.18
2019-02-06T05:11:05.572Z,1017.18
2019-02-06T05:12:05.584Z,1017.13
2019-02-06T05:13:05.574Z,1017.13
2019-02-06T05:14:05.579Z,1017.13
2019-02-06T05:15:05.585Z,1017.18
2019-02-06T05:16:05.582Z,1017.16
2019-02-06T05:17:05.587Z,1017.19
2019-02-06T05:18:05.589Z,1017.19
2019-02-06T05:19:05.600Z,1017.15
2019-02-06T05:20:05.591Z,1017.16
2019-02-06T05:21:05.599Z,1017.16
2019-02-06T05:22:05.601Z,1017.13
2019-02-06T05:23:05.591Z,1017.08
2019-02-06T05:24:05.602Z,1017.12
2019-02-06T05:25:05.602Z,1017.12
2019-02-06T05:26:05.594Z,1017.10
2019-02-06T05:27:05.597Z,1017.12
2019-02-06T05:28:05.597Z,1017.11
2019-02-06T05:29:05.601Z,1017.07
2019-02-06T05:30:05.602Z,1017.07
2019-02-06T05:31:05.606Z,1017.10
2019-02-06T05:32:05.608Z,1017.04
2019-02-06T05:33:05.605Z,1017.03
2019-02-06T05:34:05.605Z,1017.04
2019-02-06T05:35:05.608Z,1017.03
2019-02-06T05:36:05.615Z,1016.99
2019-02-06T05:37:05.622Z,1016.96
2019-02-06T05:38:05.612Z,1016.95
2019-02-06T05:39:05.607Z,1016.90
2019-02-06T05:40:05.618Z,1016.91
2019-02-06T05:41:05.705Z,1016.91
2019-02-06T05:42:05.614Z,1016.90
2019-02-06T05:43:05.625Z,1016.91
2019-02-06T05:44:05.623Z,1016.89
2019-02-06T05:45:05.620Z,1016.91
2019-02-06T05:46:05.630Z,1016.88
2019-02-06T05:47:05.622Z,1016.86
2019-02-06T05:48:05.619Z,1016.83
2019-02-06T05:49:05.614Z,1016.77
2019-02-06T05:50:05.626Z,1016.78
2019-02-06T05:51:05.630Z,1016.78
2019-02-06T05:52:05.633Z,1016.76
2019-02-06T05:53:05.636Z,1016.75
2019-02-06T05:54:05.635Z,1016.71
2019-02-06T05:55:05.626Z,1016.73
2019-02-06T05:56:05.634Z,1016.69
2019-02-06T05:57:05.637Z,1016.69
2019-02-06T05:58:05.641Z,1016.72
2019-02-06T05:59:05.667Z,1016.68
2019-02-06T06:00:05.638Z,1016.63
2019-02-06T06:01:05.659Z,1016.65
2019-02-06T06:02:05.646Z,1016.64
2019-02-06T06:03:05.647Z,1016.59
2019-02-06T06:04:05.636Z,1016.60
2019-02-06T06:05:05.642Z,1016.66
2019-02-06T06:06:05.638Z,1016.66
2019-02-06T06:07:05.650Z,1016.66
2019-02-06T06:08:05.648Z,1016.66
2019-02-06T06:09:05.651Z,1016.66
2019-02-06T06:10:05.654Z,1016.67
2019-02-06T06:11:05.662Z,1016.67
2019-02-06T06:12:05.664Z,1016.69
2019-02-06T06:13:05.654Z,1016.69
2019-02-06T06:14:05.665Z,1016.68
2019-02-06T06:15:05.662Z,1016.69
2019-02-06T06:16:05.677Z,1016.66
2019-02-06T06:17:05.660Z,1016.71
2019-02-06T06:18:05.683Z,1016.78
2019-02-06T06:19:05.665Z,1016.76
2019-02-06T06:20:05.667Z,1016.74
2019-02-06T06:21:05.663Z,1016.76
2019-02-06T06:22:05.659Z,1016.67
2019-02-06T06:23:05.667Z,1016.68
2019-02-06T06:24:08.945Z,1016.71
2019-02-06T06:25:05.679Z,1016.69
2019-02-06T06:26:05.671Z,1016.70
2019-02-06T06:27:05.675Z,1016.66
2019-02-06T06:28:05.676Z,1016.66
2019-02-06T06:29:05.686Z,1016.66
2019-02-06T06:30:05.678Z,1016.65
2019-02-06T06:31:05.679Z,1016.61
2019-02-06T06:32:05.683Z,1016.64
2019-02-06T06:33:05.682Z,1016.60
2019-02-06T06:34:05.683Z,1016.56
2019-02-06T06:35:05.786Z,1016.56
2019-02-06T06:36:05.695Z,1016.56
2019-02-06T06:37:05.688Z,1016.60
2019-02-06T06:38:05.694Z,1016.58
2019-02-06T06:39:05.714Z,1016.53
2019-02-06T06:40:05.691Z,1016.51
2019-02-06T06:41:05.690Z,1016.56
2019-02-06T06:42:05.689Z,1016.59
2019-02-06T06:43:05.691Z,1016.59
2019-02-06T06:44:05.692Z,1016.58
2019-02-06T06:45:05.694Z,1016.64
2019-02-06T06:46:05.694Z,1016.65
2019-02-06T06:47:05.705Z,1016.66
2019-02-06T06:48:05.703Z,1016.72
2019-02-06T06:49:05.710Z,1016.69
2019-02-06T06:50:05.705Z,1016.68
2019-02-06T06:51:05.736Z,1016.66
2019-02-06T06:52:05.705Z,1016.66
2019-02-06T06:53:05.716Z,1016.65
2019-02-06T06:54:05.722Z,1016.68
2019-02-06T06:55:05.720Z,1016.67
2019-02-06T06:56:05.714Z,1016.62
2019-02-06T06:57:05.711Z,1016.64
2019-02-06T06:58:05.716Z,1016.63
2019-02-06T06:59:05.844Z,1016.59
2019-02-06T07:00:05.727Z,1016.58
2019-02-06T07:01:05.715Z,1016.60
2019-02-06T07:02:05.711Z,1016.55
2019-02-06T07:03:05.726Z,1016.58
2019-02-06T07:04:05.722Z,1016.58
2019-02-06T07:05:05.851Z,1016.56
2019-02-06T07:06:05.726Z,1016.55
2019-02-06T07:07:05.726Z,1016.60
2019-02-06T07:08:09.643Z,1016.60
2019-02-06T07:09:05.726Z,1016.60
2019-02-06T07:10:05.737Z,1016.60
2019-02-06T07:11:05.735Z,1016.63
2019-02-06T07:12:05.740Z,1016.61
2019-02-06T07:13:05.746Z,1016.63
2019-02-06T07:14:05.735Z,1016.63
2019-02-06T07:15:05.740Z,1016.64
2019-02-06T07:16:05.733Z,1016.62
2019-02-06T07:17:05.734Z,1016.56
2019-02-06T07:18:05.736Z,1016.49
2019-02-06T07:19:05.740Z,1016.56
2019-02-06T07:20:05.735Z,1016.55
2019-02-06T07:21:05.744Z,1016.52
2019-02-06T07:22:05.750Z,1016.57
2019-02-06T07:23:05.752Z,1016.58
2019-02-06T07:24:05.750Z,1016.57
2019-02-06T07:25:05.758Z,1016.58
2019-02-06T07:26:05.753Z,1016.56
2019-02-06T07:27:05.757Z,1016.56
2019-02-06T07:28:05.757Z,1016.56
2019-02-06T07:29:05.759Z,1016.60
2019-02-06T07:30:05.761Z,1016.56
2019-02-06T07:31:05.766Z,1016.59
2019-02-06T07:32:05.763Z,1016.64
2019-02-06T07:33:05.763Z,1016.60
2019-02-06T07:34:05.762Z,1016.58
2019-02-06T07:35:05.758Z,1016.58
2019-02-06T07:36:05.770Z,1016.54
2019-02-06T07:37:05.768Z,1016.57
2019-02-06T07:38:05.766Z,1016.59
2019-02-06T07:39:05.772Z,1016.59
2019-02-06T07:40:05.780Z,1016.55
2019-02-06T07:41:05.781Z,1016.57
2019-02-06T07:42:05.794Z,1016.57
2019-02-06T07:43:05.775Z,1016.58
2019-02-06T07:44:05.777Z,1016.53
2019-02-06T07:45:05.784Z,1016.53
2019-02-06T07:46:05.784Z,1016.49
2019-02-06T07:47:05.787Z,1016.47
2019-02-06T07:48:05.792Z,1016.45
2019-02-06T07:49:05.796Z,1016.44
2019-02-06T07:50:05.784Z,1016.39
2019-02-06T07:51:05.790Z,1016.46
2019-02-06T07:52:05.793Z,1016.45
2019-02-06T07:53:05.800Z,1016.41
2019-02-06T07:54:05.795Z,1016.40
2019-02-06T07:55:05.800Z,1016.37
2019-02-06T07:56:05.804Z,1016.39
2019-02-06T07:57:05.815Z,1016.38
2019-02-06T07:58:05.828Z,1016.42
2019-02-06T07:59:05.813Z,1016.37
2019-02-06T08:00:05.807Z,1016.39
2019-02-06T08:01:05.815Z,1016.36
2019-02-06T08:02:05.820Z,1016.32
2019-02-06T08:03:05.813Z,1016.30
2019-02-06T08:04:05.816Z,1016.34
2019-02-06T08:05:05.817Z,1016.34
2019-02-06T08:06:05.826Z,1016.36
2019-02-06T08:07:05.825Z,1016.33
2019-02-06T08:08:05.828Z,1016.39
2019-02-06T08:09:05.835Z,1016.36
2019-02-06T08:10:05.830Z,1016.39
2019-02-06T08:11:05.837Z,1016.38
2019-02-06T08:12:05.838Z,1016.43
2019-02-06T08:13:05.840Z,1016.41
2019-02-06T08:14:05.841Z,1016.38
2019-02-06T08:15:05.851Z,1016.40
2019-02-06T08:16:07.410Z,1016.37
2019-02-06T08:17:05.851Z,1016.47
2019-02-06T08:18:05.851Z,1016.43
2019-02-06T08:19:05.853Z,1016.39
2019-02-06T08:20:05.855Z,1016.32
2019-02-06T08:21:05.857Z,1016.38
2019-02-06T08:22:05.860Z,1016.38
2019-02-06T08:23:05.868Z,1016.37
2019-02-06T08:24:05.869Z,1016.33
2019-02-06T08:25:05.866Z,1016.39
2019-02-06T08:26:05.875Z,1016.41
2019-02-06T08:27:05.874Z,1016.38
2019-02-06T08:28:05.872Z,1016.38
2019-02-06T08:29:05.882Z,1016.40
2019-02-06T08:30:05.884Z,1016.43
2019-02-06T08:31:05.881Z,1016.40
2019-02-06T08:32:05.885Z,1016.48
2019-02-06T08:33:05.889Z,1016.49
2019-02-06T08:34:05.895Z,1016.56
2019-02-06T08:35:05.889Z,1016.57
2019-02-06T08:36:05.894Z,1016.58
2019-02-06T08:37:05.902Z,1016.57
2019-02-06T08:38:05.902Z,1016.64
2019-02-06T08:39:05.897Z,1016.69
2019-02-06T08:40:05.905Z,1016.69
2019-02-06T08:41:05.907Z,1016.65
2019-02-06T08:42:05.910Z,1016.72
2019-02-06T08:43:05.913Z,1016.70
2019-02-06T08:44:05.920Z,1016.74
2019-02-06T08:45:05.919Z,1016.72
2019-02-06T08:46:05.915Z,1016.72
2019-02-06T08:47:05.943Z,1016.75
2019-02-06T08:48:05.932Z,1016.76
2019-02-06T08:49:05.925Z,1016.76
2019-02-06T08:50:05.930Z,1016.76
2019-02-06T08:51:05.936Z,1016.74
2019-02-06T08:52:05.935Z,1016.78
2019-02-06T08:53:05.953Z,1016.74
2019-02-06T08:54:05.948Z,1016.78
2019-02-06T08:55:05.946Z,1016.75
2019-02-06T08:56:05.950Z,1016.80
2019-02-06T08:57:05.955Z,1016.85
2019-02-06T08:58:05.954Z,1016.81
2019-02-06T08:59:05.959Z,1016.80
2019-02-06T09:00:05.978Z,1016.83
2019-02-06T09:01:05.961Z,1016.80
2019-02-06T09:02:05.960Z,1016.79
2019-02-06T09:03:05.969Z,1016.76
2019-02-06T09:04:05.972Z,1016.81
2019-02-06T09:05:07.679Z,1016.81
2019-02-06T09:06:05.994Z,1016.86
2019-02-06T09:07:05.978Z,1016.83
2019-02-06T09:08:05.987Z,1016.87
2019-02-06T09:09:05.994Z,1016.89
2019-02-06T09:10:05.998Z,1016.89
2019-02-06T09:11:06.006Z,1016.86
2019-02-06T09:12:05.997Z,1016.91
2019-02-06T09:13:06.000Z,1016.97
2019-02-06T09:14:06.122Z,1016.91
2019-02-06T09:15:06.012Z,1016.95
2019-02-06T09:16:06.026Z,1016.95
2019-02-06T09:17:06.016Z,1016.93
2019-02-06T09:18:06.021Z,1016.94
2019-02-06T09:19:06.022Z,1016.94
2019-02-06T09:20:06.031Z,1016.94
2019-02-06T09:21:06.032Z,1016.97
2019-02-06T09:22:06.034Z,1017.00
2019-02-06T09:23:06.047Z,1017.06
2019-02-06T09:24:06.042Z,1017.00
2019-02-06T09:25:06.048Z,1017.01
2019-02-06T09:26:06.054Z,1016.98
2019-02-06T09:27:06.061Z,1016.96
2019-02-06T09:28:06.058Z,1016.99
2019-02-06T09:29:06.064Z,1017.01
2019-02-06T09:30:06.067Z,1017.02
2019-02-06T09:31:06.075Z,1017.08
2019-02-06T09:32:06.077Z,1017.06
2019-02-06T09:33:06.092Z,1016.97
2019-02-06T09:34:06.090Z,1017.00
2019-02-06T09:35:06.090Z,1017.02
2019-02-06T09:36:06.097Z,1016.99
2019-02-06T09:37:06.108Z,1017.04
2019-02-06T09:38:06.103Z,1017.00
2019-02-06T09:39:11.720Z,1016.97
2019-02-06T09:40:06.117Z,1016.95
2019-02-06T09:41:06.124Z,1016.98
2019-02-06T09:42:06.124Z,1017.09
2019-02-06T09:43:06.128Z,1017.06
2019-02-06T09:44:06.145Z,1017.08
2019-02-06T09:45:06.144Z,1017.10
2019-02-06T09:46:06.144Z,1017.10
2019-02-06T09:47:06.148Z,1017.10
2019-02-06T09:48:06.156Z,1017.04
2019-02-06T09:49:06.161Z,1016.95
2019-02-06T09:50:06.179Z,1016.86
2019-02-06T09:51:06.179Z,1016.84
2019-02-06T09:52:06.179Z,1016.86
2019-02-06T09:53:06.184Z,1016.83
2019-02-06T09:54:06.189Z,1016.77
2019-02-06T09:55:06.195Z,1016.77
2019-02-06T09:56:06.197Z,1016.79
2019-02-06T09:57:06.207Z,1016.75
2019-02-06T09:58:06.207Z,1016.77
2019-02-06T09:59:06.216Z,1016.75
2019-02-06T10:00:06.217Z,1016.76
2019-02-06T10:01:06.223Z,1016.75
2019-02-06T10:02:06.229Z,1016.74
2019-02-06T10:03:06.243Z,1016.68
2019-02-06T10:04:06.241Z,1016.70
2019-02-06T10:05:06.243Z,1016.62
2019-02-06T10:06:06.243Z,1016.62
2019-02-06T10:07:06.253Z,1016.61
2019-02-06T10:08:06.256Z,1016.55
2019-02-06T10:09:06.254Z,1016.62
2019-02-06T10:10:06.268Z,1016.54
2019-02-06T10:11:06.269Z,1016.50
2019-02-06T10:12:06.271Z,1016.59
2019-02-06T10:13:06.437Z,1016.57
2019-02-06T10:14:06.293Z,1016.58
2019-02-06T10:15:06.291Z,1016.55
2019-02-06T10:16:06.295Z,1016.41
2019-02-06T10:17:06.305Z,1016.52
2019-02-06T10:18:06.305Z,1016.44
2019-02-06T10:19:06.302Z,1016.50
2019-02-06T10:20:06.304Z,1016.48
2019-02-06T10:21:06.308Z,1016.58
2019-02-06T10:22:06.316Z,1016.56
2019-02-06T10:23:06.319Z,1016.57
2019-02-06T10:24:06.323Z,1016.54
2019-02-06T10:25:06.333Z,1016.52
2019-02-06T10:26:06.330Z,1016.55
2019-02-06T10:27:06.337Z,1016.52
2019-02-06T10:28:06.345Z,1016.49
2019-02-06T10:29:06.338Z,1016.49
2019-02-06T10:30:06.345Z,1016.48
2019-02-06T10:31:06.356Z,1016.52
2019-02-06T10:32:06.352Z,1016.56
2019-02-06T10:33:06.361Z,1016.57
2019-02-06T10:34:06.358Z,1016.54
2019-02-06T10:35:06.359Z,1016.52
2019-02-06T10:36:06.365Z,1016.55
2019-02-06T10:37:06.373Z,1016.56
2019-02-06T10:38:06.374Z,1016.53
2019-02-06T10:39:06.379Z,1016.48
2019-02-06T10:40:06.388Z,1016.53
2019-02-06T10:41:06.384Z,1016.55
2019-02-06T10:42:06.393Z,1016.53
2019-02-06T10:43:06.400Z,1016.54
2019-02-06T10:44:06.395Z,1016.48
2019-02-06T10:45:06.397Z,1016.53
2019-02-06T10:46:06.410Z,1016.51
2019-02-06T10:47:06.403Z,1016.48
2019-02-06T10:48:06.408Z,1016.53
2019-02-06T10:49:06.414Z,1016.54
2019-02-06T10:50:06.421Z,1016.55
2019-02-06T10:51:06.427Z,1016.51
2019-02-06T10:52:06.459Z,1016.54
2019-02-06T10:53:06.433Z,1016.57
2019-02-06T10:54:06.435Z,1016.51
2019-02-06T10:55:06.438Z,1016.50
2019-02-06T10:56:06.447Z,1016.51
2019-02-06T10:57:06.574Z,1016.48
2019-02-06T10:58:06.454Z,1016.42
2019-02-06T10:59:06.452Z,1016.38
2019-02-06T11:00:06.459Z,1016.42
2019-02-06T11:01:06.471Z,1016.31
2019-02-06T11:02:06.470Z,1016.35
2019-02-06T11:03:06.484Z,1016.35
2019-02-06T11:04:06.486Z,1016.23
2019-02-06T11:05:06.482Z,1016.21
2019-02-06T11:06:06.486Z,1016.33
2019-02-06T11:07:08.232Z,1016.25
2019-02-06T11:08:06.493Z,1016.28
2019-02-06T11:09:06.517Z,1016.31
2019-02-06T11:10:06.509Z,1016.26
2019-02-06T11:11:06.502Z,1016.26
2019-02-06T11:12:06.511Z,1016.31
2019-02-06T11:13:06.525Z,1016.28
2019-02-06T11:14:06.521Z,1016.26
2019-02-06T11:15:06.519Z,1016.31
2019-02-06T11:16:06.530Z,1016.28
2019-02-06T11:17:06.535Z,1016.22
2019-02-06T11:18:06.531Z,1016.27
2019-02-06T11:19:06.535Z,1016.19
2019-02-06T11:20:06.539Z,1016.13
2019-02-06T11:21:06.542Z,1016.11
2019-02-06T11:22:06.549Z,1016.19
2019-02-06T11:23:06.556Z,1016.13
2019-02-06T11:24:06.571Z,1016.13
2019-02-06T11:25:06.571Z,1016.15
2019-02-06T11:26:06.567Z,1016.16
2019-02-06T11:27:06.572Z,1016.23
2019-02-06T11:28:06.576Z,1016.20
2019-02-06T11:29:06.581Z,1016.19
2019-02-06T11:30:06.586Z,1016.24
2019-02-06T11:31:06.584Z,1016.20
2019-02-06T11:32:06.596Z,1016.20
2019-02-06T11:33:06.590Z,1016.22
2019-02-06T11:34:06.592Z,1016.20
2019-02-06T11:35:06.605Z,1016.22
2019-02-06T11:36:06.609Z,1016.18
2019-02-06T11:37:06.612Z,1016.13
2019-02-06T11:38:06.615Z,1016.15
2019-02-06T11:39:06.617Z,1016.19
2019-02-06T11:40:06.625Z,1016.16
2019-02-06T11:41:06.631Z,1016.15
2019-02-06T11:42:06.627Z,1016.09
2019-02-06T11:43:06.649Z,1015.99
2019-02-06T11:44:06.647Z,1016.10
2019-02-06T11:45:06.647Z,1016.11
2019-02-06T11:46:09.046Z,1015.98
2019-02-06T11:47:06.657Z,1015.95
2019-02-06T11:48:06.665Z,1016.00
2019-02-06T11:49:06.668Z,1015.95
2019-02-06T11:50:06.682Z,1015.92
2019-02-06T11:51:06.671Z,1015.89
2019-02-06T11:52:06.681Z,1015.90
2019-02-06T11:53:06.686Z,1015.90
2019-02-06T11:54:06.703Z,1015.91
2019-02-06T11:55:08.659Z,1015.94
2019-02-06T11:56:06.702Z,1015.89
2019-02-06T11:57:06.707Z,1015.87
2019-02-06T11:58:06.713Z,1015.92
2019-02-06T11:59:06.709Z,1015.89
2019-02-06T12:00:06.718Z,1015.87
2019-02-06T12:01:06.724Z,1015.87
2019-02-06T12:02:06.725Z,1015.81
2019-02-06T12:03:06.736Z,1015.78
2019-02-06T12:04:06.739Z,1015.76
2019-02-06T12:05:06.744Z,1015.80
2019-02-06T12:06:06.747Z,1015.80
2019-02-06T12:07:06.752Z,1015.81
2019-02-06T12:08:06.756Z,1015.81
2019-02-06T12:09:06.762Z,1015.74
2019-02-06T12:10:09.784Z,1015.80
2019-02-06T12:11:06.770Z,1015.80
2019-02-06T12:12:06.775Z,1015.76
2019-02-06T12:13:06.777Z,1015.76
2019-02-06T12:14:06.784Z,1015.75
2019-02-06T12:15:06.791Z,1015.78
2019-02-06T12:16:06.808Z,1015.75
2019-02-06T12:17:06.810Z,1015.75
2019-02-06T12:18:06.812Z,1015.70
2019-02-06T12:19:06.806Z,1015.72
2019-02-06T12:20:06.818Z,1015.70
2019-02-06T12:21:06.816Z,1015.70
2019-02-06T12:22:06.831Z,1015.61
2019-02-06T12:23:06.844Z,1015.70
2019-02-06T12:24:06.827Z,1015.60
2019-02-06T12:25:06.839Z,1015.60
2019-02-06T12:26:06.954Z,1015.62
2019-02-06T12:27:06.860Z,1015.61
2019-02-06T12:28:06.847Z,1015.53
2019-02-06T12:29:06.859Z,1015.61
2019-02-06T12:30:06.861Z,1015.55
2019-02-06T12:31:06.910Z,1015.60
2019-02-06T12:32:06.872Z,1015.56
2019-02-06T12:33:06.873Z,1015.55
2019-02-06T12:34:06.881Z,1015.56
2019-02-06T12:35:06.905Z,1015.52
2019-02-06T12:36:06.893Z,1015.57
2019-02-06T12:37:06.893Z,1015.55
2019-02-06T12:38:06.909Z,1015.48
2019-02-06T12:39:06.908Z,1015.44
2019-02-06T12:40:06.915Z,1015.46
2019-02-06T12:41:06.913Z,1015.48
2019-02-06T12:42:06.919Z,1015.50
2019-02-06T12:43:06.921Z,1015.41
2019-02-06T12:44:06.928Z,1015.36
2019-02-06T12:45:06.937Z,1015.39
2019-02-06T12:46:06.959Z,1015.32
2019-02-06T12:47:06.945Z,1015.35
2019-02-06T12:48:06.949Z,1015.26
2019-02-06T12:49:06.965Z,1015.31
2019-02-06T12:50:06.959Z,1015.31
2019-02-06T12:51:06.972Z,1015.29
2019-02-06T12:52:06.970Z,1015.33
2019-02-06T12:53:06.976Z,1015.30
2019-02-06T12:54:06.990Z,1015.28
2019-02-06T12:55:06.985Z,1015.28
2019-02-06T12:56:06.991Z,1015.26
2019-02-06T12:57:06.996Z,1015.22
2019-02-06T12:58:07.002Z,1015.21
2019-02-06T12:59:07.010Z,1015.20
2019-02-06T13:00:07.039Z,1015.18
2019-02-06T13:01:07.038Z,1015.13
2019-02-06T13:02:07.020Z,1015.13
2019-02-06T13:03:07.025Z,1015.08
2019-02-06T13:04:07.029Z,1015.07
2019-02-06T13:05:07.034Z,1014.99
2019-02-06T13:06:07.039Z,1015.04
2019-02-06T13:07:07.047Z,1015.03
2019-02-06T13:08:07.055Z,1015.06
2019-02-06T13:09:07.059Z,1014.99
2019-02-06T13:10:07.067Z,1015.04
2019-02-06T13:11:07.070Z,1014.99
2019-02-06T13:12:07.084Z,1014.97
2019-02-06T13:13:07.076Z,1014.93
2019-02-06T13:14:07.079Z,1014.99
2019-02-06T13:15:07.087Z,1014.89
2019-02-06T13:16:07.081Z,1014.99
2019-02-06T13:17:07.097Z,1014.92
2019-02-06T13:18:07.111Z,1015.00
2019-02-06T13:19:07.106Z,1014.95
2019-02-06T13:20:07.113Z,1014.91
2019-02-06T13:21:07.117Z,1014.90
2019-02-06T13:22:07.126Z,1014.93